WetterOnline ( http://www.wetteronline.de )

Wetter aktuell Petershagen

Aktuelles Wetter: Bad Salzuflen (139m)

6-stündlich | Neueste Meldungen
Ortszeit Temperatur Wetter
Mi, 18.07. 20:00 23.3° C wolkig
Mi, 18.07. 14:00 24.2° C bedeckt
Mi, 18.07. 8:00 16.6° C fast wolkenlos
Mi, 18.07. 2:00 17.9° C bewölkt
Di, 17.07. 20:00 27.0° C bewölkt
Di, 17.07. 14:00 28.7° C wolkig
Di, 17.07. 8:00 18.7° C leicht bewölkt
Di, 17.07. 2:00 16.3° C wolkig
Ortszeit Temperatur Wetter
Mi, 18.07. 22:00 19.7° C bedeckt
Mi, 18.07. 21:50 19.7° C bedeckt
Mi, 18.07. 21:40 20.0° C leicht bewölkt
Mi, 18.07. 21:30 20.3° C wolkig
Mi, 18.07. 21:20 20.3° C bedeckt
Mi, 18.07. 21:10 20.7° C leicht bewölkt
Mi, 18.07. 21:00 21.4° C wolkig
Mi, 18.07. 20:30 22.4° C bedeckt
Mi, 18.07. 20:00 23.3° C wolkig
Mi, 18.07. 19:30 24.1° C bedeckt
Mi, 18.07. 19:00 23.7° C bedeckt
Ortszeit Relative Feuchte Sichtweite
Mi, 18.07. 20:00 42% 70 km
Mi, 18.07. 14:00 39% 40 km
Mi, 18.07. 8:00 76% 28 km
Mi, 18.07. 2:00 74% 40 km
Di, 17.07. 20:00 35% 70 km
Di, 17.07. 14:00 30% -
Di, 17.07. 8:00 66% 35 km
Di, 17.07. 2:00 76% 55 km
Ortszeit Relative Feuchte Sichtweite
Mi, 18.07. 22:00 55% 70 km
Mi, 18.07. 21:50 55% -
Mi, 18.07. 21:40 54% -
Mi, 18.07. 21:30 51% 70 km
Mi, 18.07. 21:20 51% -
Mi, 18.07. 21:10 50% -
Mi, 18.07. 21:00 48% 70 km
Mi, 18.07. 20:30 46% 70 km
Mi, 18.07. 20:00 42% 70 km
Mi, 18.07. 19:30 42% 70 km
Mi, 18.07. 19:00 45% 70 km
Ortszeit Niederschlagsmenge Niederschlagsart
Mi, 18.07. 20:00 0.0 l/m2 in 12 Std. -
Mi, 18.07. 14:00 0.0 l/m2 in 6 Std. -
Mi, 18.07. 8:00 0.0 l/m2 in 12 Std. -
Mi, 18.07. 2:00 0.0 l/m2 in 6 Std. -
Di, 17.07. 20:00 0.0 l/m2 in 12 Std. -
Di, 17.07. 14:00 0.0 l/m2 in 6 Std. -
Di, 17.07. 8:00 0.0 l/m2 in 12 Std. -
Di, 17.07. 2:00 0.0 l/m2 in 6 Std. -
Ortszeit Niederschlagsmenge Niederschlagsart
Mi, 18.07. 22:00 0.0 l/m2 in 1 Std. -
Mi, 18.07. 21:50 keine Meldung -
Mi, 18.07. 21:40 keine Meldung -
Mi, 18.07. 21:30 0.0 l/m2 in 1 Std. -
Mi, 18.07. 21:20 keine Meldung -
Mi, 18.07. 21:10 keine Meldung -
Mi, 18.07. 21:00 0.0 l/m2 in 1 Std. -
Mi, 18.07. 20:30 0.0 l/m2 in 1 Std. -
Mi, 18.07. 20:00 0.0 l/m2 in 1 Std. -
Mi, 18.07. 19:30 0.0 l/m2 in 1 Std. -
Mi, 18.07. 19:00 0.0 l/m2 in 1 Std. -
Ortszeit Stärke Spitze Richtung
km/h Bft. km/h Grad Sektor
Mi, 18.07. 20:00 7 2 29 330° NW
Mi, 18.07. 14:00 11 2 29 310° NW
Mi, 18.07. 8:00 7 2 22 290° W
Mi, 18.07. 2:00 6 1 31 300° NW
Di, 17.07. 20:00 9 2 28 270° W
Di, 17.07. 14:00 11 2 24 280° W
Di, 17.07. 8:00 0 0 11 - -
Di, 17.07. 2:00 0 0 14 - -
Ortszeit Stärke Spitze Richtung
km/h Bft. km/h Grad Sektor
Mi, 18.07. 22:00 11 2 22 20° N
Mi, 18.07. 21:50 11 2 - 20° N
Mi, 18.07. 21:40 11 2 - 20° N
Mi, 18.07. 21:30 7 2 11 350° N
Mi, 18.07. 21:20 7 2 - 350° N
Mi, 18.07. 21:10 7 2 - 350° N
Mi, 18.07. 21:00 6 1 17 360° N
Mi, 18.07. 20:30 7 2 17 10° N
Mi, 18.07. 20:00 7 2 22 330° NW
Mi, 18.07. 19:30 7 2 22 360° N
Mi, 18.07. 19:00 6 1 19 20° N
Ortszeit Untergrenze Bedeckung Gattung
total tief tief mittel hoch
Mi, 18.07. 20:00 1800 m 8/8 8/8 - - -
Mi, 18.07. 14:00 1500 m 8/8 8/8 - - -
Mi, 18.07. 8:00 2100 m 1/8 1/8 - - -
Mi, 18.07. 2:00 1440 m 7/8 7/8 - - -
Di, 17.07. 20:00 2100 m 8/8 5/8 - - -
Di, 17.07. 14:00 2100 m 8/8 2/8 - - -
Di, 17.07. 8:00 9000 m 7/8 0/8 - - -
Di, 17.07. 2:00 6900 m 8/8 2/8 - - -
Ortszeit Bedeckungsgrad in Achtel und Wolkenuntergrenze
Mi, 18.07. 22:00 8
Mi, 18.07. 21:50 9 9 9
Mi, 18.07. 21:40 1(2700m) 2(3300m)
Mi, 18.07. 21:30 1(2700m) 2(3300m) 9
Mi, 18.07. 21:20 9 9 9
Mi, 18.07. 21:10 2(1800m) 2(2400m)
Mi, 18.07. 21:00 4(1800m)
Mi, 18.07. 20:30 8(1800m)
Mi, 18.07. 20:00 8(1800m)
Mi, 18.07. 19:30 8(1800m)
Mi, 18.07. 19:00 8(1500m)
Ortszeit Luftdruck NN (hPa) Tendenz (hPa in 3 Std.)
Mi, 18.07. 20:00 1018 - 0,3
Mi, 18.07. 14:00 1018 + 0,1
Mi, 18.07. 8:00 1018 + 0,9
Mi, 18.07. 2:00 1017 + 1,5
Di, 17.07. 20:00 1013 0,0
Di, 17.07. 14:00 1013 + 0,1
Di, 17.07. 8:00 1014 + 0,7
Di, 17.07. 2:00 1014 + 0,5
Ortszeit Luftdruck NN (hPa) Tendenz (hPa in 3 Std.)
Mi, 18.07. 22:00 1018 + 0,6
Mi, 18.07. 21:50 1018 keine Meldung
Mi, 18.07. 21:40 1018 keine Meldung
Mi, 18.07. 21:30 1018 + 0,2
Mi, 18.07. 21:20 1018 keine Meldung
Mi, 18.07. 21:10 1018 keine Meldung
Mi, 18.07. 21:00 1018 + 0,2
Mi, 18.07. 20:30 1018 - 0,1
Mi, 18.07. 20:00 1018 - 0,3
Mi, 18.07. 19:30 1017 - 0,4
Mi, 18.07. 19:00 1018 - 0,4
Ortszeit Schneehöhe (cm)
Mi, 18.07. 20:00 -
Mi, 18.07. 14:00 -
Mi, 18.07. 8:00 -
Mi, 18.07. 2:00 -
Di, 17.07. 20:00 -
Di, 17.07. 14:00 -
Di, 17.07. 8:00 -
Di, 17.07. 2:00 -
Ortszeit Schneehöhe (cm)
Mi, 18.07. 22:00 -
Mi, 18.07. 21:50 -
Mi, 18.07. 21:40 -
Mi, 18.07. 21:30 -
Mi, 18.07. 21:20 -
Mi, 18.07. 21:10 -
Mi, 18.07. 21:00 -
Mi, 18.07. 20:30 -
Mi, 18.07. 20:00 -
Mi, 18.07. 19:30 -
Mi, 18.07. 19:00 -
Link zu dieser Seite / Seite empfehlen

Das Wetter in ...